Time;durP1;ratioP1;P1;durP2;ratioP2;P2;SDS_P1;SDS_P2;PMS_P1;PMS_P2;Temp;Humidity;BMP_temperature;BMP_pressure;BME280_temperature;BME280_humidity;BME280_pressure;Samples;Min_cycle;Max_cycle;Signal;HPM_P1;HPM_P2
2022/10/30 00:03:14;;;;;;;9.25;6.60;;;;;;;15.87;99.47;100662.34;2892919;79;21061;-91
2022/10/30 00:07:16;;;;;;;7.53;6.08;;;;;;;15.85;99.46;100657.14;2917737;79;21020;-91
2022/10/30 00:11:18;;;;;;;11.50;7.42;;;;;;;15.78;99.14;100658.23;2896521;79;21089;-92
2022/10/30 00:15:23;;;;;;;11.83;7.28;;;;;;;15.75;99.87;100662.56;2909222;79;20987;-92
2022/10/30 00:19:24;;;;;;;12.60;8.10;;;;;;;15.76;100.00;100666.94;2901471;80;21101;-90
2022/10/30 00:23:50;;;;;;;10.95;6.83;;;;;;;15.77;100.00;100661.06;2901380;80;20982;-90
2022/10/30 00:28:11;;;;;;;11.53;7.77;;;;;;;15.81;100.00;100661.09;2911531;79;20981;-93
2022/10/30 00:32:12;;;;;;;10.48;6.67;;;;;;;15.81;100.00;100653.91;2911292;79;21500;-93
2022/10/30 00:36:32;;;;;;;10.35;7.10;;;;;;;15.78;99.54;100651.53;2915496;77;21058;-91
2022/10/30 00:40:35;;;;;;;10.10;7.78;;;;;;;15.77;99.41;100647.65;2923730;79;21007;-91
2022/10/30 00:44:54;;;;;;;12.53;7.95;;;;;;;15.65;98.93;100641.66;2890419;79;21010;-93
2022/10/30 00:49:16;;;;;;;18.52;8.20;;;;;;;15.59;100.00;100633.71;2905698;79;21085;-93
2022/10/30 00:53:20;;;;;;;9.93;7.00;;;;;;;15.53;99.88;100635.66;2931183;78;21023;-92
2022/10/30 00:57:22;;;;;;;15.38;9.95;;;;;;;15.47;100.00;100641.12;2902807;78;21708;-90
2022/10/30 01:01:27;;;;;;;10.30;7.70;;;;;;;15.46;100.00;100633.24;2877622;78;21067;-92
2022/10/30 01:05:31;;;;;;;11.75;7.50;;;;;;;15.47;100.00;100634.92;2916056;79;21007;-92
2022/10/30 01:09:33;;;;;;;13.05;8.30;;;;;;;15.49;100.00;100633.77;2935129;78;21008;-91
2022/10/30 01:13:37;;;;;;;12.33;6.70;;;;;;;15.48;99.62;100626.72;2880835;81;21050;-92
2022/10/30 01:17:59;;;;;;;15.53;6.83;;;;;;;15.44;99.47;100629.36;2940915;79;21015;-91
2022/10/30 01:22:14;;;;;;;18.80;7.87;;;;;;;15.41;99.89;100633.68;2922262;79;72063;-62
2022/10/30 01:27:02;;;;;;;9.78;6.85;;;;;;;15.37;99.85;100632.30;2905081;79;21041;-60
2022/10/30 01:31:39;;;;;;;11.40;6.85;;;;;;;15.38;100.00;100632.12;2808025;83;21012;-61
2022/10/30 01:35:48;;;;;;;10.38;7.15;;;;;;;15.42;100.00;100630.83;2902608;80;21118;-63
2022/10/30 01:39:49;;;;;;;14.07;6.58;;;;;;;15.42;100.00;100635.37;2849964;80;20991;-61
2022/10/30 01:44:19;;;;;;;7.28;6.25;;;;;;;15.42;100.00;100638.05;2885064;79;20999;-61
2022/10/30 01:49:03;;;;;;;9.45;6.42;;;;;;;15.38;99.63;100632.64;2867638;80;21093;-60
2022/10/30 01:53:36;;;;;;;11.28;7.67;;;;;;;15.32;99.47;100635.89;2758039;84;20998;-61
2022/10/30 02:02:22;;;;;;;12.35;8.88;;;;;;;15.23;99.02;100625.09;2817971;81;21057;-61
2022/10/30 02:06:24;;;;;;;7.55;6.42;;;;;;;15.18;98.97;100620.67;2848368;80;20985;-61
2022/10/30 02:10:25;;;;;;;9.80;5.85;;;;;;;15.13;99.09;100617.09;2931478;79;20979;-60
2022/10/30 02:14:32;;;;;;;9.10;7.10;;;;;;;15.11;99.69;100611.52;2962043;78;21477;-61
2022/10/30 02:19:02;;;;;;;11.43;7.78;;;;;;;15.09;100.00;100613.51;2976181;77;20944;-60
2022/10/30 02:23:05;;;;;;;13.40;7.25;;;;;;;15.11;100.00;100614.20;2985265;77;21018;-60
2022/10/30 02:27:19;;;;;;;11.97;7.10;;;;;;;15.15;100.00;100612.94;2941069;78;21019;-62
2022/10/30 02:31:23;;;;;;;14.65;7.42;;;;;;;15.18;100.00;100611.30;2925905;78;21115;-61
2022/10/30 02:35:35;;;;;;;12.25;6.00;;;;;;;15.19;100.00;100617.00;2912223;78;21071;-60
2022/10/30 02:39:37;;;;;;;8.03;6.35;;;;;;;15.22;100.00;100612.68;2941314;78;21019;-60
2022/10/30 02:43:38;;;;;;;12.73;8.43;;;;;;;15.22;100.00;100599.28;2901139;80;20996;-62
2022/10/30 02:47:39;;;;;;;12.90;8.20;;;;;;;15.20;100.00;100605.29;2831610;82;21009;-60
2022/10/30 02:51:42;;;;;;;11.50;7.53;;;;;;;15.17;100.00;100610.95;2937908;78;20989;-61
2022/10/30 02:55:44;;;;;;;9.15;6.60;;;;;;;15.13;100.00;100612.22;2972432;77;21038;-60
2022/10/30 02:59:45;;;;;;;16.55;10.00;;;;;;;15.11;100.00;100605.69;2927159;78;21003;-63
2022/10/30 03:03:47;;;;;;;14.25;9.73;;;;;;;14.95;100.00;100605.46;2899144;80;22182;-61
2022/10/30 03:07:50;;;;;;;22.95;8.75;;;;;;;14.80;100.00;100599.73;2907837;79;20989;-60
2022/10/30 03:12:09;;;;;;;11.50;8.20;;;;;;;14.78;100.00;100605.73;2985172;77;20971;-61
2022/10/30 03:16:14;;;;;;;11.97;8.40;;;;;;;14.74;100.00;100601.16;2906295;80;21027;-63
2022/10/30 03:20:16;;;;;;;;;;;;;;;14.75;100.00;100601.51;2904044;80;21106;-60
2022/10/30 03:24:17;;;;;;;12.07;7.15;;;;;;;14.75;100.00;100602.84;2998505;77;20377;-61
2022/10/30 03:28:18;;;;;;;10.53;7.92;;;;;;;14.79;100.00;100595.38;2972917;78;20972;-61
2022/10/30 03:32:20;;;;;;;11.90;6.72;;;;;;;14.71;100.00;100591.57;2988750;77;21038;-61
2022/10/30 03:36:39;;;;;;;17.02;8.45;;;;;;;14.57;100.00;100593.36;2955762;78;21018;-61
2022/10/30 03:41:04;;;;;;;10.05;6.75;;;;;;;14.27;100.00;100588.54;2953414;78;21010;-60
2022/10/30 03:45:06;;;;;;;11.38;7.35;;;;;;;14.06;100.00;100593.55;2973824;77;20995;-61
2022/10/30 03:49:13;;;;;;;19.57;7.12;;;;;;;13.93;100.00;100599.19;2920069;79;21007;-62
2022/10/30 03:53:14;;;;;;;8.95;7.90;;;;;;;13.80;100.00;100595.94;2937901;79;20992;-61
2022/10/30 03:57:23;;;;;;;8.18;6.30;;;;;;;13.70;100.00;100590.58;2909338;79;20976;-60
2022/10/30 04:01:42;;;;;;;12.43;8.25;;;;;;;13.63;100.00;100593.46;2903226;79;21118;-61
2022/10/30 04:05:44;;;;;;;9.45;7.08;;;;;;;13.68;100.00;100590.73;2874543;79;71460;-86
2022/10/30 04:09:45;;;;;;;8.33;6.28;;;;;;;13.55;100.00;100585.63;2866030;80;21012;-86
2022/10/30 04:13:47;;;;;;;15.35;7.67;;;;;;;13.40;100.00;100595.00;2947653;78;21031;-85
2022/10/30 04:17:50;;;;;;;12.23;8.03;;;;;;;13.25;100.00;100583.83;2918230;77;21499;-85
2022/10/30 04:21:52;;;;;;;11.60;6.83;;;;;;;13.12;100.00;100578.26;2913096;78;21078;-86
2022/10/30 04:25:53;;;;;;;23.00;8.43;;;;;;;13.06;100.00;100589.46;2931095;79;21111;-86
2022/10/30 04:29:55;;;;;;;10.40;6.62;;;;;;;13.04;100.00;100581.25;2927217;79;21775;-86
2022/10/30 04:33:56;;;;;;;9.03;8.08;;;;;;;13.05;100.00;100576.27;2875470;80;21075;-86
2022/10/30 04:38:18;;;;;;;12.75;8.33;;;;;;;13.07;100.00;100575.16;2943882;78;21007;-86
2022/10/30 04:42:19;;;;;;;8.65;5.95;;;;;;;13.05;100.00;100567.74;2967934;77;21031;-86
2022/10/30 04:46:20;;;;;;;11.35;6.72;;;;;;;13.08;100.00;100554.62;2971729;78;21011;-86
2022/10/30 04:50:21;;;;;;;8.85;6.97;;;;;;;13.14;100.00;100554.92;2988355;77;21470;-86
2022/10/30 04:54:23;;;;;;;10.55;6.83;;;;;;;13.26;100.00;100546.31;2969941;77;21039;-85
2022/10/30 04:58:24;;;;;;;16.70;8.25;;;;;;;13.41;100.00;100551.27;2979135;78;21020;-85
2022/10/30 05:02:25;;;;;;;9.88;7.50;;;;;;;13.61;100.00;100560.69;2906815;77;20956;-86
2022/10/30 05:06:29;;;;;;;12.75;8.35;;;;;;;13.79;100.00;100557.67;2924662;78;20977;-86
2022/10/30 05:10:30;;;;;;;9.85;8.33;;;;;;;13.91;100.00;100562.39;2966470;77;20992;-85
2022/10/30 05:14:50;;;;;;;11.05;7.75;;;;;;;13.96;100.00;100555.28;2955157;78;20986;-86
2022/10/30 05:18:51;;;;;;;9.58;7.85;;;;;;;13.88;100.00;100553.80;2976546;77;21000;-85
2022/10/30 05:22:57;;;;;;;18.90;9.83;;;;;;;13.84;100.00;100559.91;2936514;79;20992;-86
2022/10/30 05:26:58;;;;;;;10.90;6.78;;;;;;;13.82;100.00;100564.55;2948596;78;21010;-86
2022/10/30 05:30:59;;;;;;;11.48;6.12;;;;;;;13.82;100.00;100566.75;2873112;80;21007;-86
2022/10/30 05:35:01;;;;;;;8.83;6.95;;;;;;;13.87;100.00;100568.15;2906531;79;21004;-86
2022/10/30 05:39:20;;;;;;;10.32;7.53;;;;;;;13.90;100.00;100576.74;2979958;77;21017;-86
2022/10/30 05:43:39;;;;;;;11.80;7.42;;;;;;;13.93;100.00;100580.95;2956506;78;20992;-86
2022/10/30 05:47:41;;;;;;;12.47;7.33;;;;;;;13.79;100.00;100575.53;2957314;77;21024;-85
2022/10/30 05:51:42;;;;;;;13.18;8.25;;;;;;;13.65;100.00;100574.95;3008098;76;21038;-86
2022/10/30 05:55:43;;;;;;;11.83;7.05;;;;;;;13.64;100.00;100579.11;2984863;77;21038;-86
2022/10/30 06:00:04;;;;;;;10.88;8.30;;;;;;;13.73;100.00;100579.59;2976555;78;21011;-86
2022/10/30 06:04:24;;;;;;;10.43;7.10;;;;;;;13.71;100.00;100573.55;2979198;77;21479;-86
2022/10/30 06:08:25;;;;;;;15.95;8.65;;;;;;;13.63;100.00;100578.76;3012220;77;20955;-86
2022/10/30 06:12:26;;;;;;;29.50;19.37;;;;;;;13.67;100.00;100585.03;2958049;77;21026;-85
2022/10/30 06:16:28;;;;;;;45.80;31.35;;;;;;;13.81;100.00;100583.77;2981845;77;21873;-86
2022/10/30 06:20:47;;;;;;;25.27;22.80;;;;;;;13.90;100.00;100590.11;2946466;79;20976;-86
2022/10/30 06:25:08;;;;;;;19.32;14.05;;;;;;;14.00;100.00;100584.77;2935312;78;21038;-85
2022/10/30 06:29:27;;;;;;;18.65;15.83;;;;;;;14.09;100.00;100578.55;2948924;78;21342;-85
2022/10/30 06:33:29;;;;;;;13.35;10.10;;;;;;;14.19;100.00;100581.73;2913707;78;21046;-85
2022/10/30 06:37:30;;;;;;;20.27;10.93;;;;;;;14.32;100.00;100584.11;2991129;77;21047;-86
2022/10/30 06:41:33;;;;;;;13.50;8.95;;;;;;;14.38;100.00;100580.84;2878332;79;21051;-86
2022/10/30 06:45:35;;;;;;;16.85;11.53;;;;;;;14.45;100.00;100591.83;2969889;78;21008;-85
2022/10/30 06:49:54;;;;;;;15.93;9.50;;;;;;;14.57;100.00;100594.19;2982925;77;21141;-86
2022/10/30 06:53:55;;;;;;;12.43;7.78;;;;;;;14.55;100.00;100585.47;2972157;77;21103;-86
2022/10/30 06:57:57;;;;;;;16.37;12.50;;;;;;;14.35;100.00;100582.00;2973483;78;21985;-85
2022/10/30 07:01:58;;;;;;;15.32;9.35;;;;;;;14.31;100.00;100585.92;2976359;76;21070;-85
2022/10/30 07:06:00;;;;;;;14.50;8.18;;;;;;;14.31;100.00;100594.46;2954537;78;21063;-85
2022/10/30 07:10:02;;;;;;;16.27;8.80;;;;;;;14.17;100.00;100589.06;2945500;78;21008;-85
2022/10/30 07:14:21;;;;;;;11.83;7.67;;;;;;;14.27;100.00;100581.85;2966594;76;21536;-85
2022/10/30 07:18:22;;;;;;;12.23;8.15;;;;;;;14.59;100.00;100598.08;2974084;78;21017;-86
2022/10/30 07:22:24;;;;;;;14.05;8.85;;;;;;;14.89;100.00;100598.02;2927309;78;21000;-85
2022/10/30 07:26:25;;;;;;;18.92;11.20;;;;;;;15.22;100.00;100591.25;2961241;78;20999;-85
2022/10/30 07:30:44;;;;;;;10.10;7.50;;;;;;;15.49;100.00;100584.17;2953884;77;21025;-85
2022/10/30 07:35:05;;;;;;;10.88;7.45;;;;;;;15.77;100.00;100602.91;2972245;77;21003;-86
2022/10/30 07:39:07;;;;;;;12.85;8.23;;;;;;;16.09;100.00;100616.82;2974418;78;21070;-86
2022/10/30 07:43:12;;;;;;;14.70;8.10;;;;;;;16.38;100.00;100619.73;2976558;77;21012;-87
2022/10/30 07:47:13;;;;;;;17.35;11.08;;;;;;;16.63;100.00;100624.79;2975224;78;21055;-86
2022/10/30 07:51:15;;;;;;;18.00;12.80;;;;;;;16.84;100.00;100626.27;2974428;77;21007;-86
2022/10/30 07:55:16;;;;;;;14.95;9.55;;;;;;;17.03;100.00;100625.73;2998004;77;21006;-87
2022/10/30 07:59:17;;;;;;;18.37;10.05;;;;;;;17.11;99.58;100625.27;2960767;78;21014;-87
2022/10/30 08:03:19;;;;;;;16.20;10.28;;;;;;;17.26;99.37;100616.61;2956078;77;21035;-86
2022/10/30 08:07:20;;;;;;;17.50;10.70;;;;;;;17.41;99.99;100623.55;2943867;77;21011;-87
2022/10/30 08:11:21;;;;;;;14.68;10.50;;;;;;;17.46;98.64;100617.69;2967615;77;21369;-86
2022/10/30 08:15:23;;;;;;;16.05;11.50;;;;;;;17.53;98.41;100603.42;2937871;78;21013;-87
2022/10/30 08:19:24;;;;;;;12.45;9.73;;;;;;;17.55;98.67;100597.86;2873756;80;20984;-87
2022/10/30 08:23:25;;;;;;;11.45;9.43;;;;;;;17.55;98.53;100601.41;2961090;77;21045;-86
2022/10/30 08:28:01;;;;;;;17.12;10.50;;;;;;;17.67;99.61;100606.47;2946659;78;20960;-86
2022/10/30 08:32:03;;;;;;;15.28;11.20;;;;;;;17.86;100.00;100614.76;2935956;79;21593;-87
2022/10/30 08:36:06;;;;;;;11.68;9.33;;;;;;;18.07;100.00;100618.33;2913615;79;21020;-86
2022/10/30 08:40:10;;;;;;;14.00;8.95;;;;;;;18.31;99.72;100611.29;2966568;77;21020;-85
2022/10/30 08:44:11;;;;;;;16.10;9.93;;;;;;;18.47;98.46;100602.84;2958741;77;21008;-87
2022/10/30 08:48:15;;;;;;;13.48;9.05;;;;;;;18.60;98.81;100601.82;2972450;76;20991;-86
2022/10/30 08:52:17;;;;;;;17.37;8.60;;;;;;;18.76;98.88;100604.98;2971142;77;20987;-85
2022/10/30 08:56:19;;;;;;;16.67;8.75;;;;;;;18.93;98.79;100611.67;2950265;78;21003;-84
2022/10/30 09:00:20;;;;;;;13.53;9.73;;;;;;;19.10;97.55;100618.73;2990664;77;20964;-85
2022/10/30 09:04:21;;;;;;;14.95;8.55;;;;;;;19.30;97.70;100620.19;2970638;76;21037;-85
2022/10/30 09:08:41;;;;;;;16.93;9.68;;;;;;;19.51;96.49;100610.98;2970740;78;21003;-85
2022/10/30 09:12:42;;;;;;;15.23;8.95;;;;;;;19.73;96.02;100609.84;2973151;78;21003;-85
2022/10/30 09:16:44;;;;;;;15.03;10.93;;;;;;;19.81;94.65;100603.02;2975582;78;21030;-85
2022/10/30 09:20:49;;;;;;;17.25;10.13;;;;;;;19.93;94.82;100589.98;2978461;78;20983;-84
2022/10/30 09:24:50;;;;;;;;;;;;;;;20.02;95.06;100588.59;2957543;78;21022;-85
2022/10/30 09:28:52;;;;;;;18.80;10.28;;;;;;;20.09;96.06;100568.78;2963659;78;20104;-86
2022/10/30 09:32:58;;;;;;;20.08;10.53;;;;;;;20.16;96.73;100562.64;2990288;78;21007;-85
2022/10/30 09:36:59;;;;;;;;;;;;;;;20.30;96.70;100566.39;2988986;77;21011;-86
2022/10/30 09:41:34;;;;;;;19.23;9.98;;;;;;;20.48;97.18;100570.94;2968597;77;20098;-86
2022/10/30 09:46:10;;;;;;;13.08;7.90;;;;;;;20.70;97.34;100581.86;2977287;77;21001;-85
2022/10/30 09:50:24;;;;;;;11.97;7.90;;;;;;;20.96;96.37;100584.14;2868401;79;21042;-86
2022/10/30 09:55:00;;;;;;;13.10;7.90;;;;;;;21.09;96.17;100550.19;2979344;77;21007;-85
2022/10/30 09:59:32;;;;;;;12.50;6.80;;;;;;;21.11;96.46;100549.48;2975331;78;21018;-86
2022/10/30 10:03:48;;;;;;;10.45;6.97;;;;;;;21.24;96.72;100575.36;2981199;78;20984;-86
2022/10/30 10:08:01;;;;;;;18.90;7.60;;;;;;;21.33;95.69;100561.70;2895363;80;21055;-85
2022/10/30 10:12:10;;;;;;;14.00;5.97;;;;;;;21.45;96.35;100552.08;2863552;80;21008;-86
2022/10/30 10:16:35;;;;;;;8.08;4.55;;;;;;;21.65;94.63;100556.89;2869079;79;21003;-85
2022/10/30 10:20:41;;;;;;;7.50;5.12;;;;;;;21.88;92.33;100551.80;2885413;80;20970;-87
2022/10/30 10:24:46;;;;;;;7.87;5.42;;;;;;;22.03;90.62;100551.20;2885501;80;21024;-87
2022/10/30 10:29:12;;;;;;;8.50;5.95;;;;;;;22.16;93.77;100555.05;2789141;83;21064;-87
2022/10/30 10:33:55;;;;;;;7.87;5.22;;;;;;;22.29;92.27;100557.02;2876105;80;20998;-87
2022/10/30 10:38:48;;;;;;;10.68;5.40;;;;;;;22.44;88.90;100550.16;2841456;82;21023;-88
2022/10/30 10:43:07;;;;;;;6.17;5.33;;;;;;;22.56;88.74;100551.30;2848242;80;21030;-87
2022/10/30 10:47:26;;;;;;;21.73;14.15;;;;;;;22.62;84.01;100541.03;2927529;79;20985;-87
2022/10/30 10:51:37;;;;;;;12.28;8.58;;;;;;;22.76;86.13;100547.86;2935488;78;21028;-87
2022/10/30 10:55:59;;;;;;;15.15;5.75;;;;;;;22.74;83.80;100548.08;2928196;77;20981;-88
2022/10/30 11:00:22;;;;;;;7.22;5.33;;;;;;;22.80;79.90;100539.67;2969255;79;20992;-87
2022/10/30 11:04:35;;;;;;;13.83;3.97;;;;;;;22.83;80.20;100525.17;2949085;77;20955;-87
2022/10/30 11:08:36;;;;;;;16.30;9.63;;;;;;;22.70;77.48;100525.13;2974767;77;20994;-88
2022/10/30 11:12:38;;;;;;;11.33;6.97;;;;;;;22.64;79.30;100523.19;2983786;78;20995;-87
2022/10/30 11:16:57;;;;;;;8.68;5.58;;;;;;;22.69;80.96;100518.00;3000229;78;21422;-87
2022/10/30 11:21:12;;;;;;;14.25;5.35;;;;;;;22.76;79.91;100516.69;2978060;78;21063;-87
2022/10/30 11:25:25;;;;;;;11.53;7.50;;;;;;;22.92;79.84;100523.12;2968117;77;21060;-88
2022/10/30 11:29:28;;;;;;;8.48;5.12;;;;;;;23.08;80.92;100515.69;2939946;77;21052;-89
2022/10/30 11:34:02;;;;;;;13.95;7.33;;;;;;;23.14;79.56;100510.79;2978357;78;21069;-88
2022/10/30 11:38:26;;;;;;;8.70;5.20;;;;;;;23.08;79.21;100505.66;2914871;78;21010;-88
2022/10/30 11:42:47;;;;;;;6.20;5.20;;;;;;;23.04;81.84;100500.32;2931660;79;21066;-88
2022/10/30 11:46:48;;;;;;;11.05;5.65;;;;;;;23.05;81.70;100501.99;2871738;80;20988;-89
2022/10/30 11:50:54;;;;;;;5.78;4.72;;;;;;;23.14;83.48;100501.30;2980360;77;20999;-88
2022/10/30 11:55:21;;;;;;;8.85;4.95;;;;;;;23.27;82.14;100500.52;2963668;78;21003;-89
2022/10/30 11:59:24;;;;;;;9.25;5.42;;;;;;;23.36;82.53;100493.03;2970967;77;20984;-89
2022/10/30 12:03:31;;;;;;;8.73;4.97;;;;;;;23.51;82.90;100492.87;2917107;79;21022;-88
2022/10/30 12:07:33;;;;;;;9.95;5.33;;;;;;;23.67;86.27;100486.19;2883714;80;21063;-89
2022/10/30 12:11:36;;;;;;;11.38;5.83;;;;;;;23.76;86.49;100494.44;2898475;80;20997;-89
2022/10/30 12:15:38;;;;;;;11.33;6.10;;;;;;;23.92;85.68;100486.92;2894241;80;21130;-89
2022/10/30 12:24:31;;;;;;;9.15;5.72;;;;;;;24.12;82.24;100479.30;2937998;79;21155;-60
2022/10/30 12:29:04;;;;;;;10.82;6.08;;;;;;;24.34;78.08;100479.91;2906782;80;20986;-62
2022/10/30 12:33:10;;;;;;;13.20;6.47;;;;;;;24.51;75.46;100480.27;2915349;80;21070;-63
2022/10/30 12:37:20;;;;;;;12.37;5.05;;;;;;;24.61;77.30;100474.37;2906220;80;21053;-60
2022/10/30 12:41:30;;;;;;;16.35;6.53;;;;;;;24.77;78.18;100473.11;2908122;79;21049;-63
2022/10/30 12:45:47;;;;;;;8.68;5.35;;;;;;;24.91;78.05;100473.88;2919330;80;20980;-63
2022/10/30 12:54:38;;;;;;;8.93;5.37;;;;;;;25.12;77.00;100464.55;2876901;78;21064;-90
2022/10/30 12:58:57;;;;;;;7.87;4.12;;;;;;;25.19;74.85;100469.95;2905309;79;21086;-91
2022/10/30 13:03:27;;;;;;;8.00;4.62;;;;;;;25.21;75.77;100462.40;2922101;78;20978;-90
2022/10/30 13:07:31;;;;;;;6.87;5.00;;;;;;;25.23;75.60;100462.50;2861318;80;21082;-94
2022/10/30 13:11:44;;;;;;;9.08;4.22;;;;;;;25.17;73.96;100458.45;2864043;80;21122;-94
2022/10/30 13:16:09;;;;;;;9.25;5.17;;;;;;;25.13;74.42;100457.23;2948531;78;20998;-91
2022/10/30 13:20:14;;;;;;;8.55;5.53;;;;;;;25.12;73.94;100460.46;2842508;81;21623;-92
2022/10/30 13:24:21;;;;;;;7.83;5.00;;;;;;;25.11;75.30;100454.72;2859060;78;21056;-92
2022/10/30 13:28:30;;;;;;;11.90;5.67;;;;;;;25.06;74.61;100451.82;2862202;76;21071;-92
2022/10/30 13:33:13;;;;;;;8.83;4.30;;;;;;;25.05;75.24;100450.16;2863466;81;21005;-94
2022/10/30 13:37:50;;;;;;;12.10;5.58;;;;;;;25.05;75.78;100448.25;2904884;80;21644;-94
2022/10/30 13:42:06;;;;;;;9.05;4.53;;;;;;;25.05;75.45;100444.71;2815183;81;21051;-94
2022/10/30 13:46:24;;;;;;;6.60;4.03;;;;;;;25.03;75.72;100440.02;2948002;78;21101;-94
2022/10/30 13:50:43;;;;;;;8.75;4.60;;;;;;;24.99;76.23;100438.80;2876913;80;20980;-91
2022/10/30 13:55:01;;;;;;;9.40;5.17;;;;;;;24.98;76.50;100438.48;2931487;79;21063;-94
2022/10/30 13:59:49;;;;;;;8.03;5.78;;;;;;;24.93;76.70;100435.05;2870059;80;21004;-94
2022/10/30 14:04:03;;;;;;;8.53;4.53;;;;;;;24.89;76.98;100431.92;2918383;78;21030;-93
2022/10/30 14:26:13;;;;;;;9.78;5.20;;;;;;;24.62;77.41;100439.34;2898052;80;21062;-94
2022/10/30 14:30:18;;;;;;;7.70;5.17;;;;;;;24.50;78.57;100443.25;2844789;82;21007;-92
2022/10/30 14:34:54;;;;;;;7.00;4.22;;;;;;;24.38;78.37;100449.88;2855473;81;21551;-93
2022/10/30 14:39:13;;;;;;;5.67;4.33;;;;;;;24.25;78.61;100451.58;2923852;78;21337;-95
2022/10/30 14:48:17;;;;;;;10.45;4.87;;;;;;;23.92;80.98;100451.09;2921299;79;21141;-61
2022/10/30 14:52:51;;;;;;;13.25;4.47;;;;;;;23.72;83.61;100445.66;2876678;81;21011;-60
2022/10/30 14:56:53;;;;;;;8.18;4.50;;;;;;;23.44;84.34;100447.22;2957470;79;20984;-60
2022/10/30 15:01:21;;;;;;;7.40;3.83;;;;;;;23.21;84.59;100440.27;2914944;79;21017;-63
2022/10/30 15:06:11;;;;;;;10.43;4.50;;;;;;;23.03;83.48;100443.58;2922991;80;20975;-61
2022/10/30 15:10:45;;;;;;;12.75;6.67;;;;;;;22.79;83.58;100433.57;2859035;81;21007;-60
2022/10/30 15:15:00;;;;;;;11.90;6.22;;;;;;;22.49;84.10;100424.39;2813918;83;21002;-61
2022/10/30 15:19:08;;;;;;;11.48;4.92;;;;;;;22.25;84.29;100425.19;2772147;83;20974;-62
2022/10/30 15:23:26;;;;;;;6.83;4.33;;;;;;;22.06;84.36;100426.73;2802911;84;21040;-60
2022/10/30 15:27:52;;;;;;;10.18;5.22;;;;;;;21.90;83.97;100419.75;2793099;83;21060;-60
2022/10/30 15:31:59;;;;;;;8.03;4.53;;;;;;;21.77;83.18;100428.62;2803133;83;21055;-60
2022/10/30 15:36:01;;;;;;;9.45;5.12;;;;;;;21.62;82.23;100424.63;2790744;84;21062;-62
2022/10/30 15:40:19;;;;;;;14.47;6.80;;;;;;;21.46;82.33;100427.07;2812885;83;20964;-61
2022/10/30 15:44:26;;;;;;;14.87;6.20;;;;;;;21.29;82.42;100434.63;2735800;83;21090;-62
2022/10/30 15:48:47;;;;;;;12.37;7.10;;;;;;;21.09;82.78;100432.02;2813838;81;21003;-61
2022/10/30 15:52:48;;;;;;;11.30;6.22;;;;;;;20.92;83.06;100437.34;2841473;81;20983;-62
2022/10/30 15:56:55;;;;;;;12.50;6.37;;;;;;;20.74;82.93;100435.89;2874803;80;21120;-62
2022/10/30 16:01:00;;;;;;;12.35;6.65;;;;;;;20.54;83.79;100436.47;2912080;80;20984;-61
2022/10/30 16:05:01;;;;;;;13.28;5.58;;;;;;;20.34;85.52;100444.30;2939636;80;20987;-65
2022/10/30 16:09:22;;;;;;;16.40;6.08;;;;;;;20.15;86.76;100443.00;2933635;80;21062;-64
2022/10/30 16:13:34;;;;;;;12.37;7.60;;;;;;;19.94;87.90;100448.58;2890786;80;20959;-65
2022/10/30 16:17:42;;;;;;;15.45;8.25;;;;;;;19.54;94.14;100452.80;2885425;81;20999;-62
2022/10/30 16:22:01;;;;;;;19.32;10.78;;;;;;;19.28;92.93;100457.73;2863411;81;21131;-63
2022/10/30 16:26:28;;;;;;;19.73;12.75;;;;;;;19.14;93.60;100453.42;2904042;80;21069;-62
2022/10/30 16:30:48;;;;;;;17.30;10.00;;;;;;;19.09;93.97;100456.64;2877817;80;21011;-61
2022/10/30 16:35:10;;;;;;;25.50;10.23;;;;;;;19.00;94.48;100456.38;2879531;81;21053;-63
2022/10/30 16:39:17;;;;;;;17.42;11.25;;;;;;;18.93;94.59;100467.48;2891172;80;21102;-65
2022/10/30 16:43:29;;;;;;;19.90;13.03;;;;;;;18.86;95.26;100465.99;2931385;80;21101;-61
2022/10/30 16:47:56;;;;;;;26.02;18.05;;;;;;;18.75;94.09;100463.70;2889706;81;21018;-61
2022/10/30 16:52:28;;;;;;;19.70;16.02;;;;;;;18.56;96.29;100466.63;2819540;82;21003;-62
2022/10/30 16:56:31;;;;;;;22.90;18.82;;;;;;;18.45;96.16;100464.81;2866463;80;21027;-63
2022/10/30 17:00:33;;;;;;;27.27;20.37;;;;;;;18.35;97.25;100464.52;2819990;82;30667;-63
2022/10/30 17:04:35;;;;;;;23.18;17.40;;;;;;;18.26;97.91;100469.09;2838765;81;20979;-64
2022/10/30 17:08:42;;;;;;;25.72;17.42;;;;;;;18.23;97.89;100469.92;2831264;82;21055;-63
2022/10/30 17:12:44;;;;;;;26.30;16.85;;;;;;;18.10;98.77;100472.66;2831185;82;21014;-64
2022/10/30 17:16:55;;;;;;;25.17;15.78;;;;;;;18.02;98.27;100471.31;2812163;80;21054;-62
2022/10/30 17:21:08;;;;;;;19.42;15.10;;;;;;;17.97;97.97;100472.30;2842286;81;21035;-63
2022/10/30 17:25:41;;;;;;;25.17;13.65;;;;;;;17.85;98.80;100473.98;2881405;80;20938;-62
2022/10/30 17:29:44;;;;;;;16.60;14.07;;;;;;;17.80;99.59;100482.25;2905804;79;20978;-62
2022/10/30 17:34:21;;;;;;;19.20;9.55;;;;;;;17.76;99.59;100482.22;2933458;79;20974;-62
2022/10/30 17:38:40;;;;;;;15.50;9.58;;;;;;;17.72;100.00;100483.09;2824394;81;20999;-62
2022/10/30 17:42:41;;;;;;;16.85;10.98;;;;;;;17.74;100.00;100489.62;2912942;80;20990;-62
2022/10/30 17:46:43;;;;;;;26.90;10.63;;;;;;;17.75;100.00;100484.58;2922937;80;20986;-64
2022/10/30 17:50:52;;;;;;;14.50;9.90;;;;;;;17.65;99.21;100496.36;2944503;79;21022;-62
2022/10/30 17:54:57;;;;;;;12.93;9.25;;;;;;;17.49;99.63;100490.97;2926838;79;21022;-61
2022/10/30 17:59:17;;;;;;;12.63;9.88;;;;;;;17.26;97.75;100499.15;2895582;80;20960;-61
2022/10/30 18:03:18;;;;;;;15.25;9.55;;;;;;;16.97;96.29;100499.05;2920626;80;20983;-61
2022/10/30 18:07:19;;;;;;;14.18;9.63;;;;;;;16.82;97.79;100504.69;2911400;80;21176;-62
2022/10/30 18:11:31;;;;;;;15.93;9.45;;;;;;;16.67;98.26;100497.75;2838900;82;21030;-62
2022/10/30 18:15:40;;;;;;;29.48;11.43;;;;;;;16.58;99.54;100504.07;2863914;81;20994;-60
2022/10/30 18:19:41;;;;;;;16.93;10.23;;;;;;;16.53;100.00;100504.05;2835060;81;21038;-64
2022/10/30 18:24:00;;;;;;;18.67;10.48;;;;;;;16.51;100.00;100503.38;2843890;80;20990;-63
2022/10/30 18:28:19;;;;;;;17.10;9.95;;;;;;;16.52;100.00;100501.55;2884394;80;20947;-61
2022/10/30 18:32:20;;;;;;;13.15;9.88;;;;;;;16.58;100.00;100511.64;2904748;79;21014;-61
2022/10/30 18:36:23;;;;;;;12.40;10.63;;;;;;;16.61;100.00;100508.63;2880560;80;21110;-62
2022/10/30 18:40:25;;;;;;;16.15;11.25;;;;;;;16.65;100.00;100514.02;2888916;80;20965;-62
2022/10/30 18:44:26;;;;;;;17.75;9.53;;;;;;;16.68;100.00;100511.00;2912229;80;21046;-61
2022/10/30 18:48:46;;;;;;;15.10;9.18;;;;;;;16.67;100.00;100508.50;2929611;80;21128;-61
2022/10/30 18:52:48;;;;;;;13.10;8.68;;;;;;;16.65;100.00;100514.02;2929659;79;21046;-61
2022/10/30 18:56:49;;;;;;;13.30;8.63;;;;;;;16.55;100.00;100506.59;2910742;80;20979;-62
2022/10/30 19:00:58;;;;;;;13.93;10.38;;;;;;;16.43;98.42;100507.37;2893332;80;20979;-62
2022/10/30 19:05:23;;;;;;;14.25;9.90;;;;;;;16.23;98.69;100504.05;2882585;80;20974;-62
2022/10/30 19:09:43;;;;;;;22.93;10.88;;;;;;;16.07;100.00;100505.61;2900055;80;21010;-63
2022/10/30 19:13:45;;;;;;;15.00;10.95;;;;;;;16.04;100.00;100504.58;2892780;80;21100;-61
2022/10/30 19:18:24;;;;;;;23.25;14.90;;;;;;;16.04;100.00;100508.61;2852396;82;21022;-61
2022/10/30 19:22:44;;;;;;;15.13;9.88;;;;;;;16.04;100.00;100510.47;2903243;80;20968;-61
2022/10/30 19:26:45;;;;;;;14.80;10.78;;;;;;;15.98;100.00;100508.73;2876540;81;21029;-62
2022/10/30 19:30:53;;;;;;;17.87;11.90;;;;;;;15.87;100.00;100504.94;2841154;79;20983;-63
2022/10/30 19:34:54;;;;;;;20.08;13.95;;;;;;;15.81;100.00;100505.05;2890853;79;21002;-61
2022/10/30 19:39:17;;;;;;;18.48;12.78;;;;;;;15.78;100.00;100503.16;2826099;81;21014;-62
2022/10/30 19:43:19;;;;;;;14.63;9.60;;;;;;;15.78;100.00;100505.84;2936633;78;21097;-62
2022/10/30 19:47:20;;;;;;;20.77;11.63;;;;;;;15.75;100.00;100504.82;2819106;81;20975;-64